Time;durP1;ratioP1;P1;durP2;ratioP2;P2;SDS_P1;SDS_P2;PMS_P1;PMS_P2;Temp;Humidity;BMP_temperature;BMP_pressure;BME280_temperature;BME280_humidity;BME280_pressure;Samples;Min_cycle;Max_cycle;Signal;HPM_P1;HPM_P2
2022/08/11 00:01:53;;;;;;;5.70;4.70;;;;;;;14.13;91.45;99677.67;105276;1271;76427;-70
2022/08/11 00:04:23;;;;;;;5.80;4.70;;;;;;;14.09;91.67;99674.27;105366;1271;69480;-70
2022/08/11 00:06:52;;;;;;;6.90;5.50;;;;;;;14.07;91.51;99671.86;105050;1271;73089;-70
2022/08/11 00:09:30;;;;;;;5.60;5.10;;;;;;;14.05;91.85;99670.20;105229;1270;61371;-70
2022/08/11 00:11:58;;;;;;;8.30;4.90;;;;;;;14.05;92.10;99668.06;105253;1270;61818;-70
2022/08/11 00:14:28;;;;;;;7.70;5.80;;;;;;;14.03;92.02;99666.02;105232;1271;75395;-70
2022/08/11 00:17:05;;;;;;;6.10;5.40;;;;;;;14.02;92.22;99664.34;105313;1271;68717;-70
2022/08/11 00:19:36;;;;;;;7.10;5.20;;;;;;;14.02;92.13;99662.02;105185;1271;74472;-71
2022/08/11 00:22:05;;;;;;;6.50;4.90;;;;;;;14.03;92.36;99663.57;104914;1271;61432;-70
2022/08/11 00:24:39;;;;;;;7.30;5.00;;;;;;;14.00;92.37;99664.27;105204;1271;62163;-70
2022/08/11 00:27:06;;;;;;;8.00;4.90;;;;;;;13.97;92.47;99665.23;105202;1271;75291;-71
2022/08/11 00:29:34;;;;;;;7.10;5.00;;;;;;;13.92;92.53;99667.69;105202;1271;70288;-71
2022/08/11 00:32:04;;;;;;;8.10;5.30;;;;;;;13.89;92.91;99668.67;105186;1271;73362;-70
2022/08/11 00:34:36;;;;;;;11.30;5.80;;;;;;;13.85;93.10;99669.69;105271;1270;61348;-72
2022/08/11 00:37:10;;;;;;;9.30;5.80;;;;;;;13.81;93.48;99667.02;105231;1271;62135;-72
2022/08/11 00:39:47;;;;;;;6.30;5.60;;;;;;;13.79;93.88;99668.80;105251;1271;76164;-70
2022/08/11 00:42:42;;;;;;;7.20;5.70;;;;;;;13.79;93.81;99664.68;105267;1270;69910;-70
2022/08/11 00:45:41;;;;;;;5.80;5.10;;;;;;;13.79;94.16;99663.10;105090;1269;73247;-71
2022/08/11 00:48:26;;;;;;;6.30;5.20;;;;;;;13.71;94.52;99657.20;105199;1271;61320;-71
2022/08/11 00:51:23;;;;;;;7.40;5.70;;;;;;;13.67;94.79;99656.77;105183;1270;61339;-70
2022/08/11 00:54:18;;;;;;;7.10;5.70;;;;;;;13.64;94.88;99655.37;105177;1271;75120;-69
2022/08/11 00:57:17;;;;;;;6.80;5.50;;;;;;;13.62;95.31;99654.27;105217;1270;69599;-71
2022/08/11 01:00:05;;;;;;;6.80;6.00;;;;;;;13.62;95.43;99649.45;105220;1269;72335;-70
2022/08/11 01:02:44;;;;;;;7.70;5.70;;;;;;;13.60;95.67;99652.08;105020;1271;61368;-70
2022/08/11 01:05:33;;;;;;;6.40;5.70;;;;;;;13.58;95.79;99649.38;105174;1270;61255;-70
2022/08/11 01:08:37;;;;;;;7.30;5.10;;;;;;;13.55;96.10;99645.29;105224;1271;76192;-71
2022/08/11 01:11:28;;;;;;;6.80;5.40;;;;;;;13.50;96.58;99639.38;105190;1271;69279;-70
2022/08/11 01:14:04;;;;;;;7.20;5.60;;;;;;;13.44;97.26;99646.95;105161;1271;73340;-72
2022/08/11 01:16:55;;;;;;;7.00;5.20;;;;;;;13.38;97.10;99647.15;105177;1271;61303;-71
2022/08/11 01:19:37;;;;;;;5.40;4.80;;;;;;;13.35;97.79;99650.58;105196;1270;61178;-71
2022/08/11 01:22:18;;;;;;;9.10;5.90;;;;;;;13.32;98.14;99654.00;105202;1271;75307;-71
2022/08/11 01:25:16;;;;;;;6.80;5.70;;;;;;;13.28;98.68;99651.80;104906;1270;69241;-70
2022/08/11 01:28:08;;;;;;;8.90;6.20;;;;;;;13.24;99.28;99650.23;105199;1270;73161;-71
2022/08/11 01:31:12;;;;;;;7.80;6.00;;;;;;;13.21;99.90;99647.95;105186;1270;61413;-71
2022/08/11 01:33:58;;;;;;;9.40;6.00;;;;;;;13.16;100.00;99642.92;105213;1270;61747;-71
2022/08/11 01:36:51;;;;;;;7.70;5.50;;;;;;;13.13;100.00;99641.30;105228;1271;76430;-71
2022/08/11 01:39:38;;;;;;;8.60;6.60;;;;;;;13.12;100.00;99639.60;104509;1277;70266;-71
2022/08/11 01:46:02;;;;;;;9.30;6.40;;;;;;;13.06;100.00;99634.98;103932;1283;61230;-71
2022/08/11 01:49:00;;;;;;;7.50;6.40;;;;;;;13.04;100.00;99632.69;103837;1286;61299;-71
2022/08/11 01:52:08;;;;;;;8.00;6.30;;;;;;;13.01;100.00;99638.74;103818;1286;74826;-70
2022/08/11 01:54:59;;;;;;;10.20;6.40;;;;;;;13.01;100.00;99639.44;103824;1286;68360;-70
2022/08/11 01:57:46;;;;;;;6.60;5.20;;;;;;;13.03;100.00;99635.36;103797;1286;73439;-70
2022/08/11 02:00:44;;;;;;;6.60;5.10;;;;;;;13.04;100.00;99631.58;103833;1286;61398;-71
2022/08/11 02:03:19;;;;;;;7.00;6.00;;;;;;;13.02;100.00;99632.45;103512;1286;61395;-71
2022/08/11 02:06:53;;;;;;;9.10;5.60;;;;;;;12.97;100.00;99632.38;103823;1286;75391;-72
2022/08/11 02:09:25;;;;;;;7.50;5.70;;;;;;;12.90;100.00;99634.81;103791;1286;70186;-70
2022/08/11 02:11:58;;;;;;;5.40;4.80;;;;;;;12.81;100.00;99637.93;103070;1294;73650;-70
2022/08/11 02:14:43;;;;;;;7.20;5.20;;;;;;;12.72;100.00;99640.48;102904;1294;61315;-70
2022/08/11 02:17:18;;;;;;;7.30;5.90;;;;;;;12.65;100.00;99642.39;103623;1287;61499;-71
2022/08/11 02:26:02;;;;;;;7.10;5.80;;;;;;;12.41;100.00;99647.50;104121;1279;73526;-71
2022/08/11 02:28:49;;;;;;;6.00;5.40;;;;;;;12.37;100.00;99647.18;104504;1279;61887;-71
2022/08/11 02:34:26;;;;;;;8.30;5.80;;;;;;;12.23;100.00;99648.41;104448;1279;75209;-71
2022/08/11 02:37:18;;;;;;;9.90;5.90;;;;;;;12.21;100.00;99649.13;104414;1279;70133;-72
2022/08/11 02:40:09;;;;;;;10.50;6.30;;;;;;;12.17;100.00;99647.60;104433;1279;73299;-70
2022/08/11 02:42:54;;;;;;;8.00;6.40;;;;;;;12.12;100.00;99651.77;104442;1279;61324;-70
2022/08/11 02:45:36;;;;;;;10.20;6.50;;;;;;;12.08;100.00;99646.73;104340;1280;61262;-70
2022/08/11 02:51:22;;;;;;;8.80;6.80;;;;;;;11.99;100.00;99649.04;105042;1271;69166;-71
2022/08/11 02:54:09;;;;;;;8.40;6.20;;;;;;;11.95;100.00;99646.83;105145;1271;73360;-71
2022/08/11 02:56:56;;;;;;;8.20;6.60;;;;;;;11.92;100.00;99650.02;105149;1271;61388;-72
2022/08/11 03:00:09;;;;;;;8.70;7.00;;;;;;;11.90;100.00;99648.91;105409;1269;62815;-72
2022/08/11 03:02:53;;;;;;;9.10;6.60;;;;;;;11.89;100.00;99648.77;104728;1279;75147;-73
2022/08/11 03:05:33;;;;;;;8.50;7.30;;;;;;;11.88;100.00;99650.63;104352;1280;69675;-73
2022/08/11 03:08:22;;;;;;;9.10;6.80;;;;;;;11.87;100.00;99652.61;104460;1279;72461;-72
2022/08/11 03:17:03;;;;;;;9.50;6.90;;;;;;;11.81;100.00;99650.86;104185;1279;76236;-70
2022/08/11 03:19:32;;;;;;;9.30;7.80;;;;;;;11.79;100.00;99649.51;104414;1279;70195;-71
2022/08/11 03:22:16;;;;;;;11.60;8.50;;;;;;;11.79;100.00;99648.64;104390;1279;74185;-70
2022/08/11 03:24:53;;;;;;;9.70;7.40;;;;;;;11.78;100.00;99650.86;104450;1279;61332;-70
2022/08/11 03:27:26;;;;;;;8.40;7.30;;;;;;;11.76;100.00;99651.52;104172;1279;61226;-70
2022/08/11 03:30:39;;;;;;;11.50;8.40;;;;;;;11.76;100.00;99656.70;104124;1278;76334;-70
2022/08/11 03:37:05;;;;;;;10.00;8.00;;;;;;;11.80;100.00;99655.35;103058;1290;74479;-70
2022/08/11 03:40:02;;;;;;;9.40;7.50;;;;;;;11.82;100.00;99654.16;102827;1294;61720;-70
2022/08/11 03:42:40;;;;;;;10.80;8.00;;;;;;;11.83;100.00;99654.30;103359;1290;61288;-70
2022/08/11 03:45:16;;;;;;;11.60;7.40;;;;;;;11.86;100.00;99651.62;103367;1290;76556;-71
2022/08/11 03:48:07;;;;;;;10.30;7.60;;;;;;;11.89;100.00;99648.77;103297;1290;69386;-72
2022/08/11 03:50:54;;;;;;;8.00;7.10;;;;;;;11.91;100.00;99647.75;103281;1291;74912;-71
2022/08/11 03:54:02;;;;;;;10.40;7.10;;;;;;;11.91;100.00;99650.81;103366;1290;61571;-71
2022/08/11 03:56:47;;;;;;;9.00;7.40;;;;;;;11.91;100.00;99650.79;103149;1293;61322;-72
2022/08/11 03:59:51;;;;;;;10.90;7.50;;;;;;;11.95;100.00;99652.65;103095;1294;76277;-71
2022/08/11 04:02:49;;;;;;;9.90;7.60;;;;;;;12.27;100.00;99651.05;103089;1294;70480;-71
2022/08/11 04:05:32;;;;;;;10.90;8.30;;;;;;;12.61;100.00;99651.91;103107;1294;72327;-71
2022/08/11 04:08:34;;;;;;;11.00;8.40;;;;;;;12.61;100.00;99648.66;102879;1294;61435;-72
2022/08/11 04:11:14;;;;;;;11.00;7.50;;;;;;;12.65;100.00;99647.73;103365;1286;61360;-73
2022/08/11 04:17:18;;;;;;;9.40;7.80;;;;;;;13.21;100.00;99643.30;104369;1280;70168;-73
2022/08/11 04:20:17;;;;;;;10.60;8.00;;;;;;;13.37;100.00;99643.10;104640;1278;74417;-72
2022/08/11 04:23:03;;;;;;;9.70;8.10;;;;;;;13.85;100.00;99641.19;104492;1278;61739;-73
2022/08/11 04:25:47;;;;;;;11.30;8.70;;;;;;;14.90;100.00;99639.42;104458;1278;61277;-73
2022/08/11 04:28:41;;;;;;;9.20;8.10;;;;;;;15.75;100.00;99635.10;104470;1278;76382;-72
2022/08/11 04:31:16;;;;;;;8.80;7.50;;;;;;;16.46;100.00;99632.86;104464;1278;69374;-72
2022/08/11 04:34:07;;;;;;;8.70;7.30;;;;;;;16.31;100.00;99626.90;104567;1271;71690;-72
2022/08/11 04:40:09;;;;;;;8.50;7.30;;;;;;;16.99;100.00;99629.23;105171;1271;61294;-72
2022/08/11 04:46:05;;;;;;;8.70;7.40;;;;;;;17.99;97.04;99629.16;105191;1271;69879;-73
2022/08/11 05:07:19;;;;;;;11.20;6.80;;;;;;;19.18;83.70;99628.35;105186;1271;61384;-74
2022/08/11 05:09:56;;;;;;;;;;;;;;;19.73;82.18;99626.14;105213;1271;61290;-73
2022/08/11 05:12:25;;;;;;;10.50;6.90;;;;;;;20.56;80.10;99629.72;105193;1270;75433;-73
2022/08/11 05:35:30;;;;;;;9.30;6.50;;;;;;;19.81;76.86;99642.54;105258;1270;61313;-71
2022/08/11 05:57:37;;;;;;;14.00;9.70;;;;;;;22.85;67.75;99644.70;105244;1271;70028;-71
2022/08/11 06:00:09;;;;;;;14.50;9.80;;;;;;;23.16;66.52;99653.66;105318;1270;73255;-71
2022/08/11 06:02:47;;;;;;;12.80;9.90;;;;;;;23.49;65.73;99655.70;105196;1271;61366;-72
2022/08/11 06:05:15;;;;;;;11.60;9.30;;;;;;;23.30;65.36;99656.43;105011;1271;61370;-71
2022/08/11 06:07:44;;;;;;;13.50;9.60;;;;;;;23.24;65.81;99657.66;105261;1271;75374;-72
2022/08/11 06:10:12;;;;;;;10.80;8.20;;;;;;;23.17;65.48;99658.11;105339;1271;69781;-71
2022/08/11 06:12:41;;;;;;;10.80;9.10;;;;;;;22.89;65.31;99656.58;105235;1271;74453;-71
2022/08/11 06:15:12;;;;;;;11.60;9.10;;;;;;;22.55;65.42;99664.23;105392;1271;61188;-70
2022/08/11 06:17:45;;;;;;;14.30;10.30;;;;;;;22.34;65.67;99669.80;105259;1271;61896;-71
2022/08/11 06:20:14;;;;;;;18.30;10.10;;;;;;;22.34;65.28;99669.86;105223;1271;75532;-70
2022/08/11 06:22:44;;;;;;;13.10;9.10;;;;;;;22.59;64.51;99667.39;105241;1271;70553;-71
2022/08/11 06:25:12;;;;;;;14.00;10.20;;;;;;;22.71;64.36;99667.17;105241;1270;74277;-70
2022/08/11 06:27:43;;;;;;;13.00;8.60;;;;;;;23.18;63.67;99669.20;105216;1270;61284;-71
2022/08/11 06:30:18;;;;;;;10.70;8.70;;;;;;;23.53;62.69;99667.50;105243;1271;61699;-72
2022/08/11 06:32:54;;;;;;;12.10;8.20;;;;;;;23.73;61.48;99670.81;104981;1271;75145;-71
2022/08/11 06:35:37;;;;;;;8.30;5.80;;;;;;;23.80;59.79;99670.25;105250;1271;68171;-71
2022/08/11 06:38:09;;;;;;;7.00;5.50;;;;;;;23.81;59.39;99667.23;105169;1271;74383;-72
2022/08/11 06:43:51;;;;;;;8.60;4.20;;;;;;;23.99;58.18;99667.34;105241;1271;60559;-71
2022/08/11 06:46:28;;;;;;;4.80;3.80;;;;;;;24.14;57.41;99666.52;105228;1270;75137;-72
2022/08/11 06:48:55;;;;;;;5.30;3.70;;;;;;;24.19;56.96;99661.46;105202;1271;69258;-71
2022/08/11 06:51:23;;;;;;;3.60;3.10;;;;;;;24.36;56.86;99664.29;105243;1271;73382;-72
2022/08/11 06:53:55;;;;;;;5.40;4.20;;;;;;;24.27;56.09;99660.70;104973;1271;61381;-69
2022/08/11 07:02:25;;;;;;;4.70;3.70;;;;;;;24.43;54.84;99656.90;105208;1271;68688;-70
2022/08/11 07:05:06;;;;;;;3.60;3.30;;;;;;;24.41;53.94;99657.15;105218;1271;73336;-71
2022/08/11 07:17:10;;;;;;;6.90;4.60;;;;;;;23.67;56.64;99655.80;105265;1271;68363;-71
2022/08/11 07:31:44;;;;;;;6.60;4.70;;;;;;;22.54;57.51;99651.63;105749;1271;70350;-71
2022/08/11 07:34:23;;;;;;;6.20;4.50;;;;;;;22.62;58.54;99654.17;105042;1277;74476;-71
2022/08/11 07:36:55;;;;;;;6.70;4.10;;;;;;;22.76;58.72;99652.88;104697;1278;61446;-72
2022/08/11 07:39:25;;;;;;;4.60;3.80;;;;;;;22.87;58.35;99652.39;104477;1279;61316;-72
2022/08/11 07:41:55;;;;;;;5.80;4.20;;;;;;;23.00;58.43;99654.31;104616;1278;75493;-71
2022/08/11 07:44:24;;;;;;;4.70;4.10;;;;;;;23.09;58.04;99654.36;104587;1278;69955;-72
2022/08/11 07:52:32;;;;;;;5.10;3.90;;;;;;;23.16;58.48;99652.34;104576;1278;61562;-72
2022/08/11 07:55:03;;;;;;;5.40;4.10;;;;;;;23.10;58.18;99650.67;104603;1280;76053;-70
2022/08/11 08:17:51;;;;;;;5.00;3.20;;;;;;;23.20;58.51;99644.70;105228;1271;61262;-71
2022/08/11 08:20:21;;;;;;;7.20;3.40;;;;;;;23.47;58.45;99642.77;105186;1271;62273;-71
2022/08/11 08:22:55;;;;;;;3.90;3.10;;;;;;;23.82;58.06;99637.88;105339;1271;74698;-71
2022/08/11 08:25:24;;;;;;;2.80;2.60;;;;;;;24.15;56.64;99636.36;105370;1271;68377;-71
2022/08/11 08:27:52;;;;;;;3.20;2.70;;;;;;;24.49;56.26;99635.89;105344;1271;73297;-71
2022/08/11 08:33:05;;;;;;;3.60;2.80;;;;;;;25.15;55.17;99630.27;105144;1271;61996;-70
2022/08/11 08:35:34;;;;;;;3.40;2.70;;;;;;;25.23;53.50;99631.61;105304;1271;74614;-72
2022/08/11 08:38:02;;;;;;;4.40;2.60;;;;;;;25.27;53.45;99627.06;105232;1271;68575;-72
2022/08/11 08:40:29;;;;;;;4.30;2.40;;;;;;;25.33;52.19;99623.19;105208;1271;73901;-72
2022/08/11 08:43:01;;;;;;;4.10;2.20;;;;;;;25.34;52.58;99618.84;105200;1271;61316;-72
2022/08/11 08:45:28;;;;;;;3.20;2.30;;;;;;;25.53;53.22;99617.02;105196;1270;61346;-70
2022/08/11 08:48:00;;;;;;;4.70;2.60;;;;;;;25.67;51.25;99618.68;105200;1271;75153;-73
2022/08/11 08:53:33;;;;;;;5.70;2.00;;;;;;;25.98;51.04;99608.87;105199;1270;73783;-74
2022/08/11 08:56:01;;;;;;;2.80;2.40;;;;;;;26.24;50.77;99605.46;105209;1271;61284;-72
2022/08/11 08:58:30;;;;;;;4.60;3.10;;;;;;;26.57;50.06;99600.94;105420;1270;61199;-72
2022/08/11 09:00:58;;;;;;;7.10;2.80;;;;;;;26.80;49.01;99600.94;105136;1274;76244;-72
2022/08/11 09:03:26;;;;;;;3.70;3.40;;;;;;;26.80;47.74;99606.55;105305;1271;70464;-74
2022/08/11 09:05:55;;;;;;;4.50;3.10;;;;;;;26.40;47.64;99606.39;105219;1271;73419;-75
2022/08/11 09:08:23;;;;;;;3.40;3.10;;;;;;;26.10;47.95;99608.16;105243;1271;61310;-72
2022/08/11 09:11:48;;;;;;;3.70;3.10;;;;;;;25.73;48.27;99603.25;105225;1271;61307;-73
2022/08/11 09:13:43;;;;;;;3.70;2.60;;;;;;;25.45;48.22;99601.56;105265;1271;74988;-73
2022/08/11 09:16:10;;;;;;;6.70;3.10;;;;;;;25.31;48.61;99604.34;105265;1271;69359;-71
2022/08/11 09:18:43;;;;;;;6.80;3.20;;;;;;;25.27;48.70;99609.17;105225;1271;73099;-70
2022/08/11 09:21:13;;;;;;;4.50;2.60;;;;;;;25.14;48.28;99607.05;105252;1270;61272;-71
2022/08/11 09:29:13;;;;;;;3.50;2.40;;;;;;;24.96;49.20;99600.61;105252;1271;69198;-71
2022/08/11 09:31:41;;;;;;;3.90;2.40;;;;;;;24.80;49.06;99599.80;105241;1271;73280;-71
2022/08/11 09:34:14;;;;;;;3.40;2.20;;;;;;;24.67;49.10;99596.23;105269;1271;61377;-71
2022/08/11 09:44:45;;;;;;;5.20;2.90;;;;;;;24.63;49.39;99600.09;105251;1270;70200;-72
2022/08/11 09:45:12;;;;;;;4.10;3.30;;;;;;;24.75;49.07;99600.74;105215;1271;73134;-71
2022/08/11 09:47:42;;;;;;;2.70;2.20;;;;;;;24.83;49.84;99593.41;103978;1271;1658409;-71
2022/08/11 09:50:15;;;;;;;2.70;2.40;;;;;;;25.18;50.27;99587.89;105346;1271;61295;-71
2022/08/11 09:52:44;;;;;;;4.80;2.50;;;;;;;25.42;49.12;99582.45;105281;1272;76163;-73
2022/08/11 09:55:13;;;;;;;3.60;2.60;;;;;;;25.39;48.30;99582.11;105285;1271;69762;-73
2022/08/11 10:00:39;;;;;;;4.50;3.10;;;;;;;25.75;48.26;99577.90;104994;1272;61316;-71
2022/08/11 10:03:24;;;;;;;5.20;3.70;;;;;;;25.80;48.24;99578.81;105277;1271;61373;-74
2022/08/11 10:08:44;;;;;;;4.90;2.60;;;;;;;25.68;47.62;99572.96;105250;1271;69610;-72
2022/08/11 10:11:15;;;;;;;5.20;3.20;;;;;;;25.61;47.82;99570.00;105392;1271;73284;-72
2022/08/11 10:16:34;;;;;;;4.20;2.00;;;;;;;25.55;46.80;99569.77;105220;1271;62208;-71
2022/08/11 10:19:03;;;;;;;3.10;2.90;;;;;;;25.59;46.17;99568.06;105218;1271;75080;-71
2022/08/11 10:21:43;;;;;;;3.20;2.10;;;;;;;25.58;46.03;99563.92;105290;1271;70630;-71
2022/08/11 10:27:02;;;;;;;3.10;1.90;;;;;;;25.65;45.79;99552.16;105210;1270;61415;-72
2022/08/11 10:35:17;;;;;;;5.00;2.10;;;;;;;25.64;45.27;99551.56;105261;1271;69160;-72
2022/08/11 10:37:46;;;;;;;3.20;2.50;;;;;;;25.36;45.47;99547.13;105236;1271;74384;-72
2022/08/11 10:40:15;;;;;;;3.40;2.10;;;;;;;25.01;45.83;99549.65;105223;1272;61290;-71
2022/08/11 10:43:01;;;;;;;3.50;2.30;;;;;;;24.76;46.52;99549.97;105306;1271;62021;-71
2022/08/11 10:48:19;;;;;;;4.30;2.30;;;;;;;24.27;48.04;99547.19;105197;1272;69236;-72
2022/08/11 10:59:08;;;;;;;4.10;2.50;;;;;;;23.87;54.23;99543.58;105223;1271;76303;-70
2022/08/11 11:01:42;;;;;;;2.80;2.60;;;;;;;23.95;53.71;99544.38;105231;1271;68653;-70
2022/08/11 11:04:15;;;;;;;3.40;2.50;;;;;;;24.09;53.47;99538.81;105207;1270;74385;-70
2022/08/11 11:07:13;;;;;;;4.40;2.50;;;;;;;24.23;53.81;99534.43;105218;1271;61279;-71
2022/08/11 11:09:45;;;;;;;2.70;2.40;;;;;;;24.44;53.89;99528.76;104925;1271;61433;-72
2022/08/11 11:18:25;;;;;;;3.30;2.00;;;;;;;24.87;50.41;99512.95;104611;1277;72194;-72
2022/08/11 11:21:04;;;;;;;3.20;1.80;;;;;;;24.94;49.70;99510.60;104730;1277;61269;-71
2022/08/11 11:23:46;;;;;;;4.20;2.10;;;;;;;25.04;49.83;99506.02;104550;1278;62021;-71
2022/08/11 11:26:37;;;;;;;3.90;1.90;;;;;;;25.19;50.60;99500.12;104454;1277;75631;-70
2022/08/11 11:29:19;;;;;;;3.60;2.00;;;;;;;25.31;50.84;99492.48;104528;1277;70191;-71
2022/08/11 11:32:22;;;;;;;3.90;2.00;;;;;;;25.40;50.64;99494.43;104500;1277;73376;-71
2022/08/11 11:35:14;;;;;;;2.50;1.90;;;;;;;25.53;51.45;99484.03;104461;1277;61474;-71
2022/08/11 11:37:47;;;;;;;4.00;1.70;;;;;;;25.64;50.96;99480.46;104537;1277;61872;-71
2022/08/11 11:40:20;;;;;;;2.10;1.90;;;;;;;25.66;50.15;99475.63;104237;1278;75469;-71
2022/08/11 11:42:49;;;;;;;2.30;1.60;;;;;;;25.81;48.19;99472.48;104553;1277;67496;-71
2022/08/11 11:45:18;;;;;;;2.00;1.60;;;;;;;25.93;46.97;99469.67;104510;1278;73646;-72
2022/08/11 11:47:51;;;;;;;5.00;2.00;;;;;;;25.98;46.41;99471.59;104564;1278;61506;-71
2022/08/11 11:50:35;;;;;;;4.20;1.80;;;;;;;26.10;46.10;99465.93;104587;1277;62174;-73
2022/08/11 11:53:05;;;;;;;3.90;1.60;;;;;;;26.23;46.59;99466.09;104826;1271;75347;-71
2022/08/11 11:55:34;;;;;;;2.00;1.60;;;;;;;26.24;46.34;99462.86;105357;1271;69221;-71
2022/08/11 12:03:37;;;;;;;2.70;1.60;;;;;;;26.50;45.32;99455.93;105240;1270;62104;-70
2022/08/11 12:06:05;;;;;;;1.60;1.40;;;;;;;26.59;44.95;99452.24;105223;1271;75231;-70
2022/08/11 12:08:32;;;;;;;2.60;1.40;;;;;;;26.72;44.43;99443.39;104999;1274;70158;-71
2022/08/11 12:13:52;;;;;;;2.80;1.50;;;;;;;27.03;42.30;99437.53;105246;1271;61594;-70
2022/08/11 12:16:21;;;;;;;2.00;1.30;;;;;;;27.27;42.78;99428.25;105257;1271;61151;-70
2022/08/11 12:18:51;;;;;;;2.70;1.70;;;;;;;27.49;41.88;99419.88;105258;1271;75180;-71
2022/08/11 12:21:18;;;;;;;2.90;1.30;;;;;;;27.74;42.23;99421.14;105282;1271;70205;-71
2022/08/11 12:29:18;;;;;;;3.10;1.80;;;;;;;27.65;42.46;99416.37;105246;1271;61250;-72
2022/08/11 12:31:46;;;;;;;2.10;1.40;;;;;;;27.58;42.79;99418.02;105230;1271;75550;-71
2022/08/11 12:34:15;;;;;;;2.10;1.90;;;;;;;27.34;42.20;99415.11;105249;1271;70498;-71
2022/08/11 12:36:48;;;;;;;2.40;2.20;;;;;;;27.05;42.03;99413.40;105230;1270;73317;-71
2022/08/11 12:45:26;;;;;;;2.50;1.80;;;;;;;26.81;41.38;99407.66;105366;1271;61425;-71
2022/08/11 12:53:27;;;;;;;4.30;2.80;;;;;;;25.96;40.02;99401.77;105203;1271;61282;-70
2022/08/11 12:58:47;;;;;;;4.90;2.20;;;;;;;26.11;40.22;99400.42;105157;1271;75494;-70
2022/08/11 13:06:47;;;;;;;2.40;1.30;;;;;;;25.87;39.81;99400.10;105227;1271;61312;-71
2022/08/11 13:09:13;;;;;;;4.30;0.90;;;;;;;25.79;39.66;99403.17;105226;1270;61825;-71
2022/08/11 13:14:26;;;;;;;3.50;1.30;;;;;;;25.62;40.20;99415.35;105239;1271;69189;-70
2022/08/11 13:19:41;;;;;;;1.70;1.20;;;;;;;25.41;41.94;99403.97;105170;1270;61305;-71
2022/08/11 13:22:09;;;;;;;2.40;1.40;;;;;;;25.36;42.95;99399.62;105256;1271;61365;-71
2022/08/11 13:24:37;;;;;;;5.80;1.90;;;;;;;25.35;43.73;99395.91;105229;1271;74789;-71
2022/08/11 13:27:03;;;;;;;2.30;1.70;;;;;;;25.38;44.39;99396.62;105187;1271;70090;-70
2022/08/11 13:29:30;;;;;;;4.00;1.80;;;;;;;25.51;45.13;99397.64;105221;1270;74635;-70
2022/08/11 13:31:58;;;;;;;3.30;1.30;;;;;;;25.81;45.74;99397.52;105233;1271;61278;-70
2022/08/11 13:34:27;;;;;;;3.20;1.20;;;;;;;26.01;45.77;99396.88;105198;1270;61256;-71
2022/08/11 13:36:57;;;;;;;1.40;1.20;;;;;;;26.10;46.16;99396.17;105249;1270;76374;-71
2022/08/11 13:39:27;;;;;;;5.30;1.20;;;;;;;26.13;46.07;99399.27;105254;1271;69254;-72
2022/08/11 13:41:58;;;;;;;1.10;1.00;;;;;;;26.09;46.00;99398.85;105232;1271;73334;-72
2022/08/11 13:44:27;;;;;;;1.10;1.00;;;;;;;26.18;46.43;99394.58;105100;1271;61430;-72
2022/08/11 13:47:02;;;;;;;1.70;1.30;;;;;;;26.43;46.25;99393.44;105301;1271;61308;-72
2022/08/11 13:49:32;;;;;;;2.10;1.10;;;;;;;26.68;46.23;99391.52;105072;1271;73324;-72
2022/08/11 13:52:00;;;;;;;2.10;0.90;;;;;;;26.67;45.92;99391.43;105224;1270;69385;-72
2022/08/11 13:54:30;;;;;;;2.70;1.20;;;;;;;26.51;45.91;99389.13;105188;1271;73309;-73
2022/08/11 13:57:02;;;;;;;1.70;1.20;;;;;;;26.25;46.02;99393.89;105213;1271;61389;-70
2022/08/11 13:59:29;;;;;;;4.50;1.70;;;;;;;25.88;45.08;99430.25;105253;1271;61307;-70
2022/08/11 14:02:03;;;;;;;11.00;1.60;;;;;;;25.20;45.05;99471.41;105248;1271;74408;-70
2022/08/11 14:04:33;;;;;;;9.60;1.70;;;;;;;24.19;47.11;99494.91;105300;1271;69604;-71
2022/08/11 14:07:06;;;;;;;6.50;1.50;;;;;;;23.21;50.20;99486.85;105206;1271;73179;-73
2022/08/11 14:09:39;;;;;;;6.30;1.70;;;;;;;22.41;52.75;99482.79;105295;1271;61811;-72
2022/08/11 14:15:04;;;;;;;5.20;1.50;;;;;;;20.90;62.96;99502.06;105220;1270;75295;-72
2022/08/11 14:17:32;;;;;;;4.70;1.70;;;;;;;19.97;71.04;99509.30;105220;1271;69323;-71
2022/08/11 14:20:04;;;;;;;4.00;1.50;;;;;;;19.29;76.80;99515.69;105214;1271;73226;-71
2022/08/11 14:22:33;;;;;;;3.90;1.70;;;;;;;18.78;79.61;99518.95;105174;1269;61373;-71
2022/08/11 14:25:00;;;;;;;4.50;3.00;;;;;;;18.40;80.66;99521.71;105186;1271;61236;-72
2022/08/11 14:27:29;;;;;;;4.20;2.40;;;;;;;18.15;81.43;99516.44;104902;1271;74814;-71
2022/08/11 14:29:57;;;;;;;3.80;2.00;;;;;;;18.04;82.55;99515.88;105179;1271;69287;-71
2022/08/11 14:32:25;;;;;;;4.60;1.90;;;;;;;17.93;86.69;99521.69;105185;1271;74503;-71
2022/08/11 14:34:52;;;;;;;2.10;1.90;;;;;;;17.79;87.17;99526.67;105277;1271;61336;-71
2022/08/11 14:37:22;;;;;;;5.20;2.30;;;;;;;17.70;87.58;99534.42;104908;1271;61307;-70
2022/08/11 14:40:00;;;;;;;3.30;2.20;;;;;;;17.64;88.69;99536.25;104968;1271;74907;-71
2022/08/11 14:48:07;;;;;;;8.40;2.90;;;;;;;17.47;92.99;99533.22;105147;1271;61345;-73
2022/08/11 14:50:35;;;;;;;4.40;3.10;;;;;;;17.48;93.89;99526.67;105222;1270;61265;-72
2022/08/11 14:53:05;;;;;;;4.10;2.50;;;;;;;17.48;94.48;99527.90;105193;1271;75100;-70
2022/08/11 14:58:30;;;;;;;4.70;2.30;;;;;;;17.51;96.19;99522.98;105183;1270;73842;-73
2022/08/11 15:00:58;;;;;;;5.90;2.30;;;;;;;17.56;97.57;99513.89;105216;1271;61360;-71
2022/08/11 15:03:27;;;;;;;5.90;3.00;;;;;;;17.64;99.64;99513.79;104954;1272;61436;-71
2022/08/11 15:05:58;;;;;;;5.80;2.70;;;;;;;17.71;100.00;99506.33;105296;1271;75361;-72
2022/08/11 15:14:04;;;;;;;6.40;2.50;;;;;;;17.96;100.00;99485.39;105238;1271;61234;-71
2022/08/11 15:19:19;;;;;;;4.30;2.70;;;;;;;18.17;100.00;99474.73;105217;1271;75070;-70
2022/08/11 15:24:35;;;;;;;3.50;2.20;;;;;;;18.32;100.00;99467.23;104879;1271;74228;-69
2022/08/11 15:38:16;;;;;;;7.80;2.60;;;;;;;18.75;100.00;99452.34;105182;1271;74270;-71
2022/08/11 15:46:32;;;;;;;7.10;2.80;;;;;;;18.95;100.00;99448.16;105204;1271;75198;-71
2022/08/11 15:49:03;;;;;;;6.10;2.40;;;;;;;19.07;100.00;99443.03;105241;1271;70054;-71
2022/08/11 15:51:34;;;;;;;3.10;2.70;;;;;;;19.23;100.00;99442.77;105309;1270;73269;-70
2022/08/11 15:54:07;;;;;;;2.50;2.30;;;;;;;19.36;100.00;99443.86;104944;1271;61714;-70
2022/08/11 15:56:37;;;;;;;3.70;2.70;;;;;;;19.40;100.00;99446.13;105214;1271;61290;-70
2022/08/11 16:04:40;;;;;;;4.20;2.40;;;;;;;19.35;100.00;99446.32;105213;1270;73179;-69
2022/08/11 16:07:13;;;;;;;4.40;2.60;;;;;;;19.36;100.00;99450.83;105202;1271;61391;-71
2022/08/11 16:09:52;;;;;;;10.80;7.30;;;;;;;19.43;100.00;99455.59;105182;1271;61276;-70
2022/08/11 16:12:22;;;;;;;6.70;3.80;;;;;;;19.47;100.00;99460.24;105222;1271;76085;-70
2022/08/11 16:17:43;;;;;;;21.40;8.60;;;;;;;19.33;100.00;99464.83;105184;1268;74574;-71
2022/08/11 16:20:16;;;;;;;10.60;8.30;;;;;;;19.25;100.00;99461.63;105224;1270;61470;-71
2022/08/11 16:22:46;;;;;;;11.70;7.40;;;;;;;19.25;100.00;99457.11;105227;1271;61148;-72
2022/08/11 16:25:22;;;;;;;;;;;;;;;19.24;100.00;99460.61;105213;1271;76176;-70
2022/08/11 16:28:06;;;;;;;9.10;6.70;;;;;;;19.15;100.00;99458.29;105300;1271;69549;-71
2022/08/11 16:30:37;;;;;;;8.40;5.70;;;;;;;19.00;100.00;99460.77;105186;1271;73233;-70
2022/08/11 16:33:05;;;;;;;6.00;4.10;;;;;;;18.90;100.00;99461.90;104958;1271;61396;-70
2022/08/11 16:38:38;;;;;;;8.20;3.50;;;;;;;18.85;100.00;99465.00;105102;1271;76152;-71
2022/08/11 16:41:11;;;;;;;4.20;3.40;;;;;;;18.85;100.00;99463.96;105184;1271;70063;-69
2022/08/11 16:49:36;;;;;;;4.90;3.50;;;;;;;18.65;100.00;99457.32;105090;1271;61460;-73
2022/08/11 16:52:06;;;;;;;4.90;2.90;;;;;;;18.56;100.00;99455.48;105305;1271;76625;-71
2022/08/11 16:54:34;;;;;;;5.00;3.50;;;;;;;18.56;100.00;99462.54;104981;1270;69380;-71
2022/08/11 16:59:53;;;;;;;6.90;4.10;;;;;;;18.46;100.00;99471.55;105235;1271;61300;-70
2022/08/11 17:13:50;;;;;;;6.50;3.70;;;;;;;18.21;100.00;99458.15;105237;1271;61616;-71
2022/08/11 17:16:24;;;;;;;4.40;3.60;;;;;;;18.50;100.00;99449.25;105218;1271;61668;-70